createdAt,value
2018-05-27T00:02:28.949Z,44.37
2018-05-27T00:04:57.607Z,44.63
2018-05-27T00:07:25.854Z,44.33
2018-05-27T00:09:55.110Z,44.60
2018-05-27T00:12:23.806Z,44.40
2018-05-27T00:14:53.127Z,45.30
2018-05-27T00:17:23.768Z,44.23
2018-05-27T00:19:52.082Z,43.97
2018-05-27T00:22:20.332Z,44.73
2018-05-27T00:24:48.599Z,45.87
2018-05-27T00:27:17.043Z,45.73
2018-05-27T00:29:45.247Z,45.87
2018-05-27T00:32:15.069Z,47.00
2018-05-27T00:34:43.272Z,44.50
2018-05-27T00:37:11.508Z,46.67
2018-05-27T00:39:39.715Z,45.27
2018-05-27T00:42:09.675Z,45.43
2018-05-27T00:44:37.887Z,46.23
2018-05-27T00:47:06.338Z,46.07
2018-05-27T00:49:34.575Z,45.90
2018-05-27T00:52:02.797Z,45.67
2018-05-27T00:54:31.748Z,44.77
2018-05-27T00:57:00.857Z,44.67
2018-05-27T00:59:29.099Z,45.43
2018-05-27T01:01:59.838Z,44.73
2018-05-27T01:04:29.725Z,44.43
2018-05-27T01:06:57.937Z,45.23
2018-05-27T01:09:27.034Z,45.37
2018-05-27T01:11:55.878Z,44.97
2018-05-27T01:14:24.071Z,44.93
2018-05-27T01:16:54.124Z,44.67
2018-05-27T01:19:22.354Z,44.43
2018-05-27T01:21:50.588Z,44.73
2018-05-27T01:24:18.797Z,45.50
2018-05-27T01:26:47.041Z,43.37
2018-05-27T01:31:50.896Z,44.97
2018-05-27T01:34:19.118Z,44.17
2018-05-27T01:36:47.325Z,43.33
2018-05-27T01:39:16.448Z,44.73
2018-05-27T01:41:44.681Z,45.07
2018-05-27T01:44:12.890Z,44.73
2018-05-27T01:46:41.118Z,44.63
2018-05-27T01:49:09.312Z,45.07
2018-05-27T01:51:37.502Z,44.80
2018-05-27T01:54:05.888Z,47.60
2018-05-27T01:56:34.076Z,45.80
2018-05-27T01:59:03.184Z,45.47
2018-05-27T02:01:31.388Z,45.93
2018-05-27T02:03:59.596Z,44.87
2018-05-27T02:06:28.534Z,45.80
2018-05-27T02:08:57.545Z,45.13
2018-05-27T02:11:26.546Z,45.50
2018-05-27T02:13:57.250Z,46.37
2018-05-27T02:16:25.517Z,45.97
2018-05-27T02:18:58.315Z,46.67
2018-05-27T02:21:27.074Z,46.30
2018-05-27T02:23:55.333Z,46.83
2018-05-27T02:26:23.544Z,45.17
2018-05-27T02:28:51.853Z,46.27
2018-05-27T02:31:20.063Z,46.27
2018-05-27T02:33:48.316Z,46.40
2018-05-27T02:36:16.588Z,46.40
2018-05-27T02:38:46.367Z,46.83
2018-05-27T02:41:14.630Z,47.50
2018-05-27T02:43:42.859Z,51.70
2018-05-27T02:46:11.077Z,49.07
2018-05-27T02:48:39.273Z,50.37
2018-05-27T02:51:08.254Z,53.27
2018-05-27T02:53:36.606Z,50.90
2018-05-27T02:56:04.874Z,51.80
2018-05-27T02:58:33.082Z,47.63
2018-05-27T03:01:02.356Z,61.90
2018-05-27T03:03:30.832Z,49.67
2018-05-27T03:05:59.059Z,49.80
2018-05-27T03:08:28.925Z,50.10
2018-05-27T03:10:57.130Z,50.90
2018-05-27T03:13:25.342Z,48.33
2018-05-27T03:15:53.576Z,48.90
2018-05-27T03:18:22.838Z,50.67
2018-05-27T03:20:51.090Z,48.93
2018-05-27T03:23:20.546Z,49.37
2018-05-27T03:25:49.196Z,50.93
2018-05-27T03:28:17.437Z,49.67
2018-05-27T03:30:46.236Z,50.60
2018-05-27T03:33:14.428Z,50.20
2018-05-27T03:35:42.636Z,51.37
2018-05-27T03:38:10.870Z,49.23
2018-05-27T03:40:40.013Z,50.03
2018-05-27T03:43:08.281Z,50.53
2018-05-27T03:45:37.405Z,53.17
2018-05-27T03:48:06.613Z,51.97
2018-05-27T03:50:35.605Z,52.80
2018-05-27T03:53:04.003Z,52.63
2018-05-27T03:55:32.282Z,52.77
2018-05-27T03:58:01.333Z,52.53
2018-05-27T04:00:31.055Z,51.23
2018-05-27T04:02:59.874Z,52.63
2018-05-27T04:08:42.245Z,52.27
2018-05-27T04:11:10.516Z,53.03
2018-05-27T04:13:38.802Z,52.07
2018-05-27T04:16:07.109Z,52.93
2018-05-27T04:18:35.696Z,54.10
2018-05-27T04:21:04.855Z,54.83
2018-05-27T04:23:33.161Z,52.93
2018-05-27T04:26:01.426Z,54.13
2018-05-27T04:28:29.870Z,51.80
2018-05-27T04:31:02.179Z,52.50
2018-05-27T04:33:30.473Z,53.47
2018-05-27T04:35:58.713Z,53.37
2018-05-27T04:38:26.959Z,52.27
2018-05-27T04:40:55.509Z,53.03
2018-05-27T04:43:24.404Z,53.30
2018-05-27T04:45:52.610Z,49.97
2018-05-27T04:48:20.849Z,53.67
2018-05-27T04:50:49.946Z,53.13
2018-05-27T04:53:18.254Z,53.87
2018-05-27T04:55:46.509Z,52.53
2018-05-27T04:58:15.480Z,52.47
2018-05-27T05:00:44.058Z,52.27
2018-05-27T05:03:12.377Z,55.67
2018-05-27T05:05:40.611Z,52.37
2018-05-27T05:08:09.992Z,52.53
2018-05-27T05:10:39.556Z,52.00
2018-05-27T05:13:09.047Z,51.70
2018-05-27T05:15:38.829Z,51.90
2018-05-27T05:18:07.116Z,51.77
2018-05-27T05:20:35.409Z,53.57
2018-05-27T05:23:04.909Z,54.47
2018-05-27T05:25:35.106Z,50.80
2018-05-27T05:28:04.399Z,51.00
2018-05-27T05:30:32.729Z,52.30
2018-05-27T05:33:02.101Z,50.63
2018-05-27T05:35:31.429Z,52.70
2018-05-27T05:38:01.626Z,51.00
2018-05-27T05:40:30.878Z,51.23
2018-05-27T05:43:01.059Z,49.80
2018-05-27T05:45:29.518Z,50.13
2018-05-27T05:47:58.645Z,50.40
2018-05-27T05:50:26.929Z,50.13
2018-05-27T05:52:55.954Z,50.63
2018-05-27T05:55:24.713Z,51.27
2018-05-27T05:57:52.963Z,49.87
2018-05-27T06:00:21.445Z,50.63
2018-05-27T06:02:50.765Z,50.00
2018-05-27T06:05:19.782Z,48.43
2018-05-27T06:07:48.024Z,47.37
2018-05-27T06:10:19.422Z,45.83
2018-05-27T06:12:48.559Z,46.83
2018-05-27T06:15:16.778Z,47.07
2018-05-27T06:17:45.055Z,49.20
2018-05-27T06:20:13.278Z,46.93
2018-05-27T06:22:41.489Z,47.03
2018-05-27T06:25:09.744Z,47.47
2018-05-27T06:27:40.188Z,50.67
2018-05-27T06:30:09.185Z,50.80
2018-05-27T06:32:38.211Z,52.03
2018-05-27T06:35:06.735Z,55.43
2018-05-27T06:37:35.718Z,52.20
2018-05-27T06:40:03.956Z,50.67
2018-05-27T06:42:32.178Z,51.93
2018-05-27T06:45:00.546Z,52.20
2018-05-27T06:47:28.730Z,52.17
2018-05-27T06:49:56.985Z,51.23
2018-05-27T06:52:25.915Z,51.40
2018-05-27T06:54:54.117Z,52.47
2018-05-27T06:57:22.400Z,50.20
2018-05-27T06:59:50.677Z,51.97
2018-05-27T07:02:20.013Z,52.30
2018-05-27T07:04:49.086Z,50.83
2018-05-27T07:07:19.193Z,50.93
2018-05-27T07:09:47.434Z,52.57
2018-05-27T07:12:17.846Z,52.53
2018-05-27T07:14:46.969Z,51.50
2018-05-27T07:17:15.223Z,51.50
2018-05-27T07:19:44.570Z,51.90
2018-05-27T07:22:14.061Z,50.83
2018-05-27T07:24:49.484Z,51.27
2018-05-27T07:27:35.270Z,51.17
2018-05-27T07:30:03.868Z,50.43
2018-05-27T07:32:33.899Z,49.47
2018-05-27T07:35:04.340Z,51.20
2018-05-27T07:37:32.780Z,50.23
2018-05-27T07:40:05.282Z,48.40
2018-05-27T07:42:33.674Z,49.37
2018-05-27T07:45:06.096Z,49.90
2018-05-27T07:47:34.555Z,49.43
2018-05-27T07:50:03.289Z,49.63
2018-05-27T07:52:31.548Z,49.70
2018-05-27T07:55:00.765Z,51.20
2018-05-27T07:57:29.608Z,49.27
2018-05-27T07:59:57.877Z,49.90
2018-05-27T08:02:28.012Z,50.47
2018-05-27T08:04:56.635Z,49.87
2018-05-27T08:07:25.827Z,49.63
2018-05-27T08:09:54.198Z,50.23
2018-05-27T08:12:26.928Z,50.00
2018-05-27T08:14:56.093Z,50.23
2018-05-27T08:17:28.247Z,49.90
2018-05-27T08:19:58.901Z,50.40
2018-05-27T08:22:28.574Z,50.73
2018-05-27T08:24:56.876Z,49.27
2018-05-27T08:27:30.610Z,48.60
2018-05-27T08:29:59.097Z,47.57
2018-05-27T08:32:31.707Z,49.27
2018-05-27T08:35:00.243Z,49.27
2018-05-27T08:37:28.518Z,49.40
2018-05-27T08:39:58.857Z,49.97
2018-05-27T08:42:28.656Z,48.47
2018-05-27T08:44:57.689Z,48.73
2018-05-27T08:47:26.389Z,48.07
2018-05-27T08:49:55.570Z,49.33
2018-05-27T08:52:23.771Z,48.20
2018-05-27T08:54:57.005Z,48.37
2018-05-27T08:57:30.586Z,49.00
2018-05-27T09:00:00.330Z,47.60
2018-05-27T09:02:29.681Z,55.77
2018-05-27T09:04:58.853Z,55.37
2018-05-27T09:07:27.134Z,53.30
2018-05-27T09:09:57.255Z,50.67
2018-05-27T09:12:27.868Z,52.70
2018-05-27T09:14:59.278Z,50.50
2018-05-27T09:17:28.879Z,49.93
2018-05-27T09:20:04.535Z,51.53
2018-05-27T09:22:38.262Z,50.43
2018-05-27T09:27:51.575Z,51.40
2018-05-27T09:30:31.584Z,51.20
2018-05-27T09:33:01.578Z,50.93
2018-05-27T09:35:34.703Z,51.50
2018-05-27T09:38:05.583Z,51.37
2018-05-27T09:40:33.823Z,50.57
2018-05-27T09:43:02.988Z,47.87
2018-05-27T09:45:32.145Z,50.83
2018-05-27T09:48:06.987Z,50.33
2018-05-27T09:50:46.002Z,49.73
2018-05-27T09:53:14.370Z,49.77
2018-05-27T09:55:43.484Z,50.10
2018-05-27T09:58:11.763Z,50.33
2018-05-27T10:01:04.536Z,50.67
2018-05-27T10:03:33.975Z,50.63
2018-05-27T10:06:02.684Z,50.23
2018-05-27T10:08:30.934Z,50.10
2018-05-27T10:10:59.762Z,49.53
2018-05-27T10:13:28.831Z,49.63
2018-05-27T10:15:57.270Z,49.83
2018-05-27T10:20:59.828Z,49.23
2018-05-27T10:23:28.065Z,49.93
2018-05-27T10:25:56.341Z,50.23
2018-05-27T10:28:24.671Z,51.53
2018-05-27T10:30:52.927Z,50.20
2018-05-27T10:33:27.868Z,49.87
2018-05-27T10:35:56.915Z,49.20
2018-05-27T10:38:27.710Z,49.17
2018-05-27T10:40:58.496Z,49.73
2018-05-27T10:43:26.979Z,50.17
2018-05-27T10:45:55.200Z,50.37
2018-05-27T10:48:26.446Z,51.40
2018-05-27T10:50:54.672Z,49.93
2018-05-27T10:53:23.182Z,50.23
2018-05-27T10:55:53.989Z,50.07
2018-05-27T10:58:22.519Z,49.97
2018-05-27T11:00:51.588Z,66.97
2018-05-27T11:03:26.975Z,50.60
2018-05-27T11:05:55.261Z,49.57
2018-05-27T11:08:23.484Z,50.00
2018-05-27T11:10:52.715Z,49.67
2018-05-27T11:13:22.181Z,49.10
2018-05-27T11:15:51.344Z,49.73
2018-05-27T11:18:19.596Z,50.30
2018-05-27T11:20:48.328Z,50.80
2018-05-27T11:23:17.398Z,50.50
2018-05-27T11:25:45.853Z,51.50
2018-05-27T11:28:14.948Z,50.90
2018-05-27T11:30:43.491Z,51.73
2018-05-27T11:33:12.695Z,51.63
2018-05-27T11:35:40.878Z,50.77
2018-05-27T11:38:09.664Z,51.03
2018-05-27T11:40:38.803Z,49.73
2018-05-27T11:43:07.150Z,50.77
2018-05-27T11:45:35.358Z,50.30
2018-05-27T11:48:04.828Z,50.97
2018-05-27T11:50:33.209Z,50.80
2018-05-27T11:53:01.479Z,50.27
2018-05-27T11:55:30.674Z,50.90
2018-05-27T11:58:00.026Z,50.03
2018-05-27T12:00:28.440Z,51.67
2018-05-27T12:02:57.264Z,50.70
2018-05-27T12:05:26.330Z,49.93
2018-05-27T12:07:54.861Z,50.03
2018-05-27T12:10:23.101Z,52.07
2018-05-27T12:12:52.187Z,50.30
2018-05-27T12:15:20.392Z,50.37
2018-05-27T12:17:48.601Z,50.33
2018-05-27T12:20:16.804Z,51.03
2018-05-27T12:22:44.981Z,51.10
2018-05-27T12:25:13.296Z,51.83
2018-05-27T12:27:41.514Z,51.87
2018-05-27T12:30:09.721Z,50.03
2018-05-27T12:32:38.870Z,50.53
2018-05-27T12:35:07.094Z,49.67
2018-05-27T12:37:35.321Z,51.57
2018-05-27T12:40:06.251Z,49.73
2018-05-27T12:42:34.577Z,50.23
2018-05-27T12:45:02.810Z,49.53
2018-05-27T12:47:31.037Z,49.30
2018-05-27T12:49:59.270Z,50.57
2018-05-27T12:52:27.849Z,50.70
2018-05-27T12:54:57.355Z,49.37
2018-05-27T12:57:25.849Z,50.70
2018-05-27T12:59:54.356Z,49.33
2018-05-27T13:02:22.708Z,50.73
2018-05-27T13:04:50.963Z,50.17
2018-05-27T13:07:19.954Z,49.83
2018-05-27T13:09:48.795Z,50.10
2018-05-27T13:12:17.985Z,50.00
2018-05-27T13:14:46.207Z,52.57
2018-05-27T13:17:14.431Z,50.33
2018-05-27T13:19:42.998Z,49.97
2018-05-27T13:22:12.145Z,50.27
2018-05-27T13:24:41.157Z,50.33
2018-05-27T13:27:09.422Z,51.10
2018-05-27T13:29:37.651Z,49.63
2018-05-27T13:32:05.909Z,50.80
2018-05-27T13:34:34.949Z,50.03
2018-05-27T13:37:03.375Z,50.40
2018-05-27T13:39:33.260Z,49.47
2018-05-27T13:42:03.763Z,49.93
2018-05-27T13:44:33.095Z,49.70
2018-05-27T13:47:02.294Z,49.47
2018-05-27T13:49:31.073Z,49.17
2018-05-27T13:51:59.386Z,49.10
2018-05-27T13:54:27.597Z,49.73
2018-05-27T13:56:56.929Z,49.70
2018-05-27T13:59:25.182Z,49.30
2018-05-27T14:01:57.838Z,49.30
2018-05-27T14:04:26.030Z,50.40
2018-05-27T14:06:54.235Z,49.17
2018-05-27T14:09:22.605Z,49.93
2018-05-27T14:11:51.329Z,48.20
2018-05-27T14:14:20.165Z,48.20
2018-05-27T14:16:49.068Z,48.50
2018-05-27T14:19:17.249Z,49.70
2018-05-27T14:21:45.469Z,48.70
2018-05-27T14:24:13.779Z,49.40
2018-05-27T14:26:43.000Z,48.80
2018-05-27T14:29:12.256Z,48.77
2018-05-27T14:31:41.481Z,48.23
2018-05-27T14:34:10.027Z,49.40
2018-05-27T14:36:39.184Z,49.23
2018-05-27T14:39:07.454Z,49.87
2018-05-27T14:41:35.735Z,49.30
2018-05-27T14:44:05.111Z,49.17
2018-05-27T14:49:11.172Z,50.43
2018-05-27T14:51:40.292Z,49.03
2018-05-27T14:54:09.687Z,52.93
2018-05-27T14:56:39.573Z,70.80
2018-05-27T14:59:07.983Z,55.63
2018-05-27T15:01:36.306Z,52.33
2018-05-27T15:04:05.620Z,52.57
2018-05-27T15:06:34.070Z,50.80
2018-05-27T15:09:03.373Z,52.20
2018-05-27T15:11:31.614Z,49.93
2018-05-27T15:13:59.821Z,51.10
2018-05-27T15:16:28.053Z,50.80
2018-05-27T15:18:57.042Z,50.47
2018-05-27T15:21:26.191Z,51.07
2018-05-27T15:23:54.421Z,50.57
2018-05-27T15:26:23.390Z,50.97
2018-05-27T15:28:52.729Z,49.60
2018-05-27T15:31:20.957Z,49.77
2018-05-27T15:33:49.509Z,49.77
2018-05-27T15:36:19.049Z,49.77
2018-05-27T15:38:47.243Z,50.47
2018-05-27T15:41:16.297Z,49.37
2018-05-27T15:43:44.542Z,49.93
2018-05-27T15:46:12.747Z,50.87
2018-05-27T15:48:40.984Z,49.90
2018-05-27T15:51:10.001Z,49.53
2018-05-27T15:53:38.789Z,49.37
2018-05-27T15:56:07.551Z,48.97
2018-05-27T15:58:36.129Z,49.73
2018-05-27T16:01:04.400Z,49.97
2018-05-27T16:03:34.420Z,51.40
2018-05-27T16:06:02.634Z,49.87
2018-05-27T16:08:30.848Z,51.07
2018-05-27T16:10:59.050Z,49.73
2018-05-27T16:13:27.276Z,49.07
2018-05-27T16:15:55.481Z,50.23
2018-05-27T16:18:23.691Z,49.70
2018-05-27T16:20:51.918Z,50.43
2018-05-27T16:23:20.399Z,49.80
2018-05-27T16:25:49.238Z,50.97
2018-05-27T16:28:17.463Z,50.13
2018-05-27T16:30:45.720Z,49.77
2018-05-27T16:33:13.931Z,51.40
2018-05-27T16:35:42.142Z,49.73
2018-05-27T16:38:10.342Z,49.20
2018-05-27T16:40:39.085Z,49.87
2018-05-27T16:43:07.330Z,48.67
2018-05-27T16:45:35.564Z,48.30
2018-05-27T16:48:03.812Z,48.97
2018-05-27T16:50:32.023Z,49.57
2018-05-27T16:53:00.618Z,50.30
2018-05-27T16:55:29.434Z,49.67
2018-05-27T16:57:57.700Z,48.10
2018-05-27T17:00:26.674Z,50.47
2018-05-27T17:02:56.322Z,49.37
2018-05-27T17:05:25.502Z,49.23
2018-05-27T17:07:54.133Z,48.30
2018-05-27T17:10:25.109Z,48.70
2018-05-27T17:12:54.242Z,47.07
2018-05-27T17:15:22.470Z,47.43
2018-05-27T17:17:53.228Z,48.13
2018-05-27T17:20:21.690Z,47.73
2018-05-27T17:22:50.266Z,47.80
2018-05-27T17:25:18.526Z,47.73
2018-05-27T17:27:47.711Z,46.63
2018-05-27T17:30:15.900Z,45.90
2018-05-27T17:32:44.105Z,46.80
2018-05-27T17:35:12.338Z,48.03
2018-05-27T17:37:40.534Z,46.43
2018-05-27T17:40:08.909Z,47.07
2018-05-27T17:42:38.219Z,46.90
2018-05-27T17:45:07.139Z,47.47
2018-05-27T17:47:36.104Z,47.83
2018-05-27T17:50:04.346Z,48.33
2018-05-27T17:52:32.614Z,46.03
2018-05-27T17:55:00.892Z,45.40
2018-05-27T17:57:29.105Z,47.17
2018-05-27T17:59:57.355Z,45.57
2018-05-27T18:02:25.625Z,45.50
2018-05-27T18:04:55.001Z,46.37
2018-05-27T18:07:23.231Z,46.63
2018-05-27T18:09:52.194Z,45.77
2018-05-27T18:12:20.595Z,46.07
2018-05-27T18:14:48.829Z,46.30
2018-05-27T18:17:17.056Z,47.57
2018-05-27T18:19:45.283Z,48.07
2018-05-27T18:22:13.533Z,47.37
2018-05-27T18:24:41.848Z,48.60
2018-05-27T18:27:10.048Z,48.17
2018-05-27T18:29:38.301Z,49.20
2018-05-27T18:32:06.629Z,48.00
2018-05-27T18:34:34.829Z,47.33
2018-05-27T18:37:03.058Z,47.10
2018-05-27T18:39:31.362Z,47.17
2018-05-27T18:42:00.381Z,46.97
2018-05-27T18:44:29.600Z,46.60
2018-05-27T18:46:57.845Z,46.97
2018-05-27T18:49:26.879Z,45.00
2018-05-27T18:51:55.146Z,46.73
2018-05-27T18:54:23.366Z,46.93
2018-05-27T18:56:51.561Z,46.90
2018-05-27T18:59:19.778Z,46.80
2018-05-27T19:01:48.705Z,47.53
2018-05-27T19:04:16.959Z,46.13
2018-05-27T19:06:45.198Z,46.33
2018-05-27T19:09:13.419Z,45.90
2018-05-27T19:11:41.609Z,46.80
2018-05-27T19:14:09.831Z,45.63
2018-05-27T19:16:38.086Z,46.80
2018-05-27T19:19:06.978Z,47.23
2018-05-27T19:21:35.515Z,46.57
2018-05-27T19:24:03.732Z,47.47
2018-05-27T19:26:32.107Z,47.47
2018-05-27T19:29:00.329Z,47.83
2018-05-27T19:31:28.621Z,46.40
2018-05-27T19:33:57.578Z,46.10
2018-05-27T19:36:25.788Z,46.83
2018-05-27T19:38:54.007Z,46.53
2018-05-27T19:41:22.208Z,45.90
2018-05-27T19:43:50.397Z,46.20
2018-05-27T19:46:19.412Z,44.83
2018-05-27T19:48:47.641Z,46.07
2018-05-27T19:51:15.903Z,46.90
2018-05-27T19:53:44.148Z,47.00
2018-05-27T19:56:13.155Z,46.60
2018-05-27T19:58:41.355Z,46.27
2018-05-27T20:01:09.630Z,48.53
2018-05-27T20:03:37.860Z,46.43
2018-05-27T20:06:06.069Z,46.37
2018-05-27T20:08:34.354Z,45.67
2018-05-27T20:11:02.588Z,46.37
2018-05-27T20:13:31.490Z,47.07
2018-05-27T20:15:59.748Z,46.13
2018-05-27T20:18:27.956Z,46.20
2018-05-27T20:20:56.161Z,47.33
2018-05-27T20:23:24.385Z,47.10
2018-05-27T20:25:52.587Z,46.60
2018-05-27T20:28:20.844Z,46.70
2018-05-27T20:30:49.154Z,47.97
2018-05-27T20:33:18.902Z,46.87
2018-05-27T20:35:47.105Z,47.30
2018-05-27T20:38:15.334Z,46.10
2018-05-27T20:40:43.537Z,46.90
2018-05-27T20:43:11.796Z,46.30
2018-05-27T20:45:40.052Z,46.60
2018-05-27T20:48:09.084Z,47.70
2018-05-27T20:50:37.342Z,47.00
2018-05-27T20:53:05.571Z,47.80
2018-05-27T20:55:34.700Z,47.13
2018-05-27T20:58:03.116Z,46.83
2018-05-27T21:00:31.373Z,47.17
2018-05-27T21:03:00.498Z,46.43
2018-05-27T21:05:28.743Z,46.03
2018-05-27T21:07:57.017Z,45.90
2018-05-27T21:10:25.214Z,45.20
2018-05-27T21:12:53.501Z,46.20
2018-05-27T21:15:22.552Z,45.90
2018-05-27T21:17:50.796Z,47.40
2018-05-27T21:20:19.098Z,46.70
2018-05-27T21:22:47.352Z,46.37
2018-05-27T21:25:15.576Z,45.73
2018-05-27T21:27:43.844Z,47.20
2018-05-27T21:30:12.078Z,46.77
2018-05-27T21:32:41.033Z,47.63
2018-05-27T21:35:09.268Z,47.53
2018-05-27T21:37:37.671Z,46.77
2018-05-27T21:40:05.896Z,46.00
2018-05-27T21:42:35.535Z,45.77
2018-05-27T21:45:03.975Z,46.57
2018-05-27T21:47:32.205Z,46.23
2018-05-27T21:50:01.149Z,46.30
2018-05-27T21:52:30.217Z,46.70
2018-05-27T21:54:58.449Z,47.83
2018-05-27T21:57:26.706Z,46.87
2018-05-27T21:59:55.199Z,46.60
2018-05-27T22:02:23.681Z,46.83
2018-05-27T22:04:53.700Z,47.07
2018-05-27T22:07:22.147Z,46.47
2018-05-27T22:09:50.358Z,45.93
2018-05-27T22:12:18.566Z,47.00
2018-05-27T22:14:46.818Z,46.60
2018-05-27T22:17:15.832Z,47.43
2018-05-27T22:19:44.903Z,46.77
2018-05-27T22:22:14.154Z,46.43
2018-05-27T22:24:43.248Z,46.70
2018-05-27T22:27:11.538Z,46.33
2018-05-27T22:29:39.780Z,46.87
2018-05-27T22:32:08.533Z,46.77
2018-05-27T22:34:37.769Z,47.27
2018-05-27T22:37:07.262Z,46.60
2018-05-27T22:39:35.505Z,47.57
2018-05-27T22:42:03.750Z,46.63
2018-05-27T22:44:32.461Z,47.93
2018-05-27T22:47:00.688Z,46.97
2018-05-27T22:49:29.956Z,46.77
2018-05-27T22:51:58.193Z,46.57
2018-05-27T22:54:26.437Z,46.97
2018-05-27T22:56:54.671Z,47.47
2018-05-27T22:59:23.746Z,47.70
2018-05-27T23:01:52.385Z,47.47
2018-05-27T23:04:20.616Z,47.57
2018-05-27T23:06:50.129Z,47.60
2018-05-27T23:09:18.334Z,47.57
2018-05-27T23:11:47.117Z,46.77
2018-05-27T23:14:15.899Z,47.47
2018-05-27T23:16:44.197Z,47.03
2018-05-27T23:19:12.426Z,47.20
2018-05-27T23:21:41.394Z,46.30
2018-05-27T23:24:09.640Z,47.27
2018-05-27T23:26:37.857Z,46.77
2018-05-27T23:29:06.232Z,45.83
2018-05-27T23:31:34.419Z,47.20
2018-05-27T23:34:03.032Z,46.47
2018-05-27T23:36:31.947Z,48.30
2018-05-27T23:39:01.504Z,47.40
2018-05-27T23:41:29.754Z,47.20
2018-05-27T23:43:57.985Z,46.13
2018-05-27T23:46:26.180Z,46.00
2018-05-27T23:48:54.454Z,46.77
2018-05-27T23:51:22.634Z,46.33
2018-05-27T23:53:51.995Z,47.23
2018-05-27T23:56:20.248Z,45.83
2018-05-27T23:58:48.490Z,46.33
